Terminal Aerodrome Forecast
Issued by NWS

Home | Current Version | Previous Version | Text Only | Print | Product List | Glossary On
Versions: 1 2 3 4 5 6 7 8 9 10 11 12 13 14 15 16
000
FTUS43 KMQT 241139
TAFCMX
TAF
KCMX 241139Z 2412/2512 04014KT P6SM OVC018
     FM241400 05016G25KT P6SM OVC015
     FM241500 05016G28KT 6SM -SN OVC015
     FM241800 04018G29KT 3SM -SN BLSN OVC015
     FM242000 04019G29KT 2SM -SN BLSN OVC015
     FM242200 03018G28KT 1 1/2SM -SN BLSN OVC015
     FM250700 34017G29KT 1 1/2SM -SN BLSN OVC010=

USA.gov is the U.S. government's official web portal to all federal, state and local government web resources and services.